Time;durP1;ratioP1;P1;durP2;ratioP2;P2;SDS_P1;SDS_P2;PMS_P1;PMS_P2;Temp;Humidity;BMP_temperature;BMP_pressure;BME280_temperature;BME280_humidity;BME280_pressure;Samples;Min_cycle;Max_cycle;Signal;HPM_P1;HPM_P2
2024/04/16 00:00:24;;;;;;;10.70;3.10;;;;;;;8.52;93.24;98615.33;106197;1254;61249;-76
2024/04/16 00:02:51;;;;;;;7.80;3.10;;;;;;;8.50;93.13;98642.63;106177;1259;61196;-74
2024/04/16 00:05:19;;;;;;;6.90;3.10;;;;;;;8.53;92.27;98635.73;107546;1254;74715;-75
2024/04/16 00:07:46;;;;;;;5.90;3.40;;;;;;;8.51;91.10;98635.63;107884;1254;68831;-75
2024/04/16 00:10:14;;;;;;;5.40;3.10;;;;;;;8.45;90.66;98651.07;106324;1259;71480;-77
2024/04/16 00:12:41;;;;;;;5.90;2.70;;;;;;;8.39;90.89;98656.85;106116;1254;61232;-78
2024/04/16 00:15:29;;;;;;;9.90;3.30;;;;;;;8.35;90.80;98661.46;106171;1254;61205;-74
2024/04/16 00:17:57;;;;;;;4.30;2.90;;;;;;;8.35;90.54;98675.05;106668;1253;73448;-75
2024/04/16 00:20:24;;;;;;;7.20;3.60;;;;;;;8.34;90.39;98696.25;105952;1254;69951;-77
2024/04/16 00:22:52;;;;;;;9.40;3.70;;;;;;;8.29;90.65;98698.33;106233;1254;71535;-79
2024/04/16 00:25:19;;;;;;;6.70;3.20;;;;;;;8.25;91.13;98684.66;107249;1253;61689;-77
2024/04/16 00:27:47;;;;;;;6.30;3.70;;;;;;;8.26;90.98;98673.65;108070;1254;61256;-77
2024/04/16 00:30:14;;;;;;;5.50;2.80;;;;;;;8.27;91.08;98664.96;107478;1259;73851;-78
2024/04/16 00:32:42;;;;;;;7.30;3.10;;;;;;;8.25;91.19;98655.77;105944;1252;69101;-78
2024/04/16 00:35:09;;;;;;;8.10;3.50;;;;;;;8.23;91.53;98650.86;106512;1259;72625;-75
2024/04/16 00:37:37;;;;;;;7.00;3.60;;;;;;;8.32;91.50;98635.88;107100;1254;61320;-76
2024/04/16 00:40:04;;;;;;;6.60;3.70;;;;;;;8.41;92.05;98625.13;107686;1259;61100;-78
2024/04/16 00:42:31;;;;;;;6.10;3.50;;;;;;;8.43;92.16;98609.20;107221;1254;73408;-79
2024/04/16 00:44:59;;;;;;;6.50;3.40;;;;;;;8.44;91.93;98594.80;106647;1259;68950;-77
2024/04/16 00:47:26;;;;;;;8.60;3.60;;;;;;;8.52;92.11;98585.80;106674;1254;72493;-78
2024/04/16 00:49:53;;;;;;;7.00;3.50;;;;;;;8.59;91.81;98579.25;106092;1261;61780;-76
2024/04/16 00:52:21;;;;;;;6.20;3.30;;;;;;;8.57;91.48;98549.66;106196;1254;61359;-78
2024/04/16 00:54:48;;;;;;;6.90;3.40;;;;;;;8.62;91.97;98529.58;107906;1254;73591;-78
2024/04/16 00:57:16;;;;;;;7.00;3.50;;;;;;;8.65;92.78;98519.70;107490;1254;68771;-79
2024/04/16 00:59:43;;;;;;;7.00;3.70;;;;;;;8.69;92.68;98499.38;109069;1254;72496;-81
2024/04/16 01:02:10;;;;;;;8.30;3.10;;;;;;;8.76;92.58;98506.26;109170;1253;60454;-79
2024/04/16 01:04:38;;;;;;;8.60;3.60;;;;;;;8.83;93.29;98524.23;106657;1258;61193;-79
2024/04/16 01:07:05;;;;;;;5.20;2.90;;;;;;;8.84;93.03;98535.57;106408;1252;73404;-79
2024/04/16 01:09:33;;;;;;;6.60;3.10;;;;;;;8.83;92.45;98537.64;106113;1258;67873;-78
2024/04/16 01:12:00;;;;;;;5.70;2.90;;;;;;;8.86;92.35;98561.18;105998;1254;71762;-79
2024/04/16 01:14:27;;;;;;;6.80;3.00;;;;;;;8.88;92.88;98568.03;105831;1254;61249;-78
2024/04/16 01:16:55;;;;;;;5.40;3.20;;;;;;;8.87;93.06;98555.97;106108;1256;61105;-79
2024/04/16 01:19:22;;;;;;;8.50;3.50;;;;;;;8.93;93.83;98548.26;105909;1259;73470;-80
2024/04/16 01:21:50;;;;;;;4.60;2.90;;;;;;;9.07;94.06;98560.42;106198;1254;69284;-79
2024/04/16 01:24:17;;;;;;;7.20;3.30;;;;;;;9.12;93.39;98560.32;106038;1256;71385;-78
2024/04/16 01:26:44;;;;;;;5.60;3.60;;;;;;;9.10;93.35;98547.98;106747;1258;61664;-80
2024/04/16 01:29:12;;;;;;;7.00;3.30;;;;;;;9.11;92.72;98526.35;105894;1254;61407;-78
2024/04/16 01:31:39;;;;;;;6.00;3.50;;;;;;;9.10;92.50;98525.08;105929;1256;74748;-79
2024/04/16 01:34:06;;;;;;;5.10;3.60;;;;;;;9.07;92.76;98529.13;106024;1257;68661;-77
2024/04/16 01:36:34;;;;;;;10.00;3.30;;;;;;;9.12;93.86;98529.95;106075;1256;72703;-78
2024/04/16 01:39:01;;;;;;;9.50;3.60;;;;;;;9.20;93.59;98526.58;106063;1254;61290;-78
2024/04/16 01:41:29;;;;;;;6.30;3.10;;;;;;;9.21;92.92;98517.66;106130;1254;61215;-78
2024/04/16 01:43:56;;;;;;;5.30;2.80;;;;;;;9.24;92.90;98532.48;105985;1258;76814;-77
2024/04/16 01:46:24;;;;;;;5.70;2.60;;;;;;;9.33;92.68;98536.23;106969;1256;70322;-78
2024/04/16 01:48:51;;;;;;;10.90;2.80;;;;;;;9.35;92.59;98534.83;107337;1257;71407;-77
2024/04/16 01:51:18;;;;;;;4.30;2.80;;;;;;;9.40;92.20;98522.43;106403;1252;61287;-77
2024/04/16 01:53:46;;;;;;;6.00;3.40;;;;;;;9.48;92.24;98520.05;107755;1253;59259;-75
2024/04/16 01:56:13;;;;;;;3.80;3.00;;;;;;;9.49;92.55;98525.77;108409;1254;74597;-77
2024/04/16 01:58:40;;;;;;;6.60;3.50;;;;;;;9.56;93.16;98536.90;106562;1259;69020;-79
2024/04/16 02:01:08;;;;;;;7.60;3.70;;;;;;;9.60;93.24;98533.30;106294;1256;72599;-77
2024/04/16 02:03:35;;;;;;;8.10;3.70;;;;;;;9.64;92.30;98526.52;105899;1259;61315;-79
2024/04/16 02:06:05;;;;;;;6.50;3.30;;;;;;;9.66;91.54;98539.33;105959;1256;61167;-77
2024/04/16 02:08:33;;;;;;;7.40;3.40;;;;;;;9.64;91.76;98556.17;106690;1257;74655;-77
2024/04/16 02:11:00;;;;;;;6.00;3.70;;;;;;;9.65;91.99;98574.17;106357;1257;70761;-78
2024/04/16 02:13:30;;;;;;;9.70;3.00;;;;;;;9.66;90.92;98573.64;106053;1260;72898;-80
2024/04/16 02:15:58;;;;;;;8.50;3.70;;;;;;;9.55;90.11;98575.83;105997;1253;61778;-76
2024/04/16 02:18:25;;;;;;;7.50;3.50;;;;;;;9.46;90.10;98595.73;106099;1255;61866;-77
2024/04/16 02:20:52;;;;;;;5.50;3.20;;;;;;;9.34;89.17;98613.98;106145;1257;73386;-78
2024/04/16 02:23:20;;;;;;;5.50;3.20;;;;;;;9.16;88.62;98627.33;106119;1257;70110;-78
2024/04/16 02:25:48;;;;;;;3.80;2.90;;;;;;;9.03;88.60;98633.50;106032;1255;71039;-81
2024/04/16 02:28:15;;;;;;;6.30;3.90;;;;;;;8.91;89.10;98635.14;106157;1256;61273;-78
2024/04/16 02:30:43;;;;;;;8.50;4.60;;;;;;;8.83;89.66;98639.33;105878;1263;61307;-79
2024/04/16 02:33:13;;;;;;;5.90;3.70;;;;;;;8.77;89.73;98634.08;106104;1257;74879;-78
2024/04/16 02:35:40;;;;;;;6.40;3.70;;;;;;;8.73;89.35;98625.63;106165;1257;71413;-80
2024/04/16 02:38:08;;;;;;;8.30;4.60;;;;;;;8.70;89.50;98621.95;105913;1260;71516;-78
2024/04/16 02:40:35;;;;;;;10.00;5.00;;;;;;;8.69;89.81;98617.95;105931;1261;61286;-77
2024/04/16 02:43:03;;;;;;;11.00;4.30;;;;;;;8.70;90.39;98614.27;105842;1260;61140;-79
2024/04/16 02:45:31;;;;;;;6.70;3.10;;;;;;;8.72;90.69;98603.45;105930;1254;74667;-79
2024/04/16 02:47:59;;;;;;;6.00;3.20;;;;;;;8.78;90.98;98588.45;108732;1253;74806;-79
2024/04/16 02:50:27;;;;;;;8.40;3.70;;;;;;;8.79;90.60;98577.35;109284;1254;71793;-78
2024/04/16 02:52:54;;;;;;;10.80;3.80;;;;;;;8.82;91.13;98571.98;106883;1254;61243;-77
2024/04/16 02:55:21;;;;;;;6.00;3.70;;;;;;;8.95;92.29;98564.36;106275;1260;61202;-78
2024/04/16 02:57:49;;;;;;;9.10;3.80;;;;;;;8.99;92.87;98553.05;106978;1255;73719;-75
2024/04/16 03:00:16;;;;;;;9.90;3.90;;;;;;;9.05;93.53;98547.08;107499;1257;70173;-76
2024/04/16 03:02:43;;;;;;;7.30;2.90;;;;;;;9.10;93.81;98540.90;107346;1255;71549;-75
2024/04/16 03:05:11;;;;;;;7.60;4.10;;;;;;;9.09;94.75;98534.54;106330;1257;61230;-77
2024/04/16 03:07:43;;;;;;;8.40;3.30;;;;;;;9.12;95.45;98531.54;106375;1260;61419;-77
2024/04/16 03:10:15;;;;;;;5.00;3.60;;;;;;;9.15;95.16;98520.45;106346;1256;75414;-77
2024/04/16 03:12:43;;;;;;;6.40;3.50;;;;;;;9.09;95.71;98511.77;106110;1260;70758;-79
2024/04/16 03:15:11;;;;;;;5.60;3.40;;;;;;;9.00;94.67;98501.67;106226;1257;71149;-78
2024/04/16 03:17:38;;;;;;;8.70;3.90;;;;;;;8.94;94.46;98483.02;106245;1254;61705;-79
2024/04/16 03:20:07;;;;;;;5.20;3.00;;;;;;;8.88;94.65;98472.09;106048;1254;61142;-80
2024/04/16 03:22:34;;;;;;;5.30;3.20;;;;;;;8.81;95.26;98467.86;106129;1253;73355;-80
2024/04/16 03:25:03;;;;;;;7.00;4.10;;;;;;;8.79;95.89;98459.65;106083;1258;69845;-81
2024/04/16 03:27:30;;;;;;;4.60;2.90;;;;;;;8.79;95.64;98443.89;105965;1257;72774;-80
2024/04/16 03:29:58;;;;;;;6.90;3.40;;;;;;;8.74;95.13;98433.77;106257;1254;61341;-81
2024/04/16 03:32:25;;;;;;;5.30;2.90;;;;;;;8.73;95.47;98433.39;106229;1254;61406;-80
2024/04/16 03:34:53;;;;;;;6.00;2.90;;;;;;;8.71;95.03;98432.56;105804;1257;73419;-77
2024/04/16 03:37:20;;;;;;;5.10;2.80;;;;;;;8.69;95.19;98430.38;106014;1257;69212;-79
2024/04/16 03:39:48;;;;;;;7.50;3.30;;;;;;;8.64;95.67;98417.79;106076;1257;72939;-76
2024/04/16 03:42:15;;;;;;;4.00;2.70;;;;;;;8.65;95.67;98407.31;108276;1254;61236;-77
2024/04/16 03:44:42;;;;;;;5.20;2.80;;;;;;;8.61;95.67;98399.64;108911;1253;59936;-77
2024/04/16 03:47:10;;;;;;;5.30;2.50;;;;;;;8.66;95.73;98391.45;106713;1256;73566;-78
2024/04/16 03:49:38;;;;;;;5.80;2.80;;;;;;;8.71;95.45;98385.30;106193;1258;69966;-79
2024/04/16 03:52:06;;;;;;;5.40;3.40;;;;;;;8.75;95.39;98386.29;106139;1257;72750;-79
2024/04/16 03:54:33;;;;;;;5.00;3.10;;;;;;;8.80;95.12;98390.81;105992;1257;61413;-79
2024/04/16 03:57:00;;;;;;;5.70;2.60;;;;;;;8.82;95.24;98398.11;106012;1255;62051;-79
2024/04/16 04:02:19;;;;;;;4.80;2.60;;;;;;;9.00;94.83;98395.46;106257;1259;70332;-76
2024/04/16 04:04:47;;;;;;;5.90;3.20;;;;;;;9.05;94.53;98393.88;106377;1255;74975;-77
2024/04/16 04:07:14;;;;;;;5.50;2.90;;;;;;;9.10;94.41;98396.69;106254;1254;61265;-75
2024/04/16 04:09:42;;;;;;;9.10;4.10;;;;;;;9.15;95.13;98399.79;106795;1257;205559;-76
2024/04/16 04:13:10;;;;;;;8.00;2.70;;;;;;;9.28;95.46;98409.76;103536;1292;600771;-76
2024/04/16 04:15:37;;;;;;;6.10;3.00;;;;;;;9.39;95.96;98419.02;105202;1272;60516;-77
2024/04/16 04:18:05;;;;;;;4.80;4.00;;;;;;;9.49;95.47;98427.20;105330;1266;60049;-76
2024/04/16 04:20:32;;;;;;;7.00;3.20;;;;;;;9.49;94.48;98449.38;105267;1270;72153;-77
2024/04/16 04:23:00;;;;;;;4.80;3.30;;;;;;;9.51;94.59;98471.95;104965;1273;70082;-75
2024/04/16 04:25:27;;;;;;;4.30;3.00;;;;;;;9.59;95.16;98494.95;104943;1266;72551;-76
2024/04/16 04:27:54;;;;;;;3.20;2.50;;;;;;;9.62;94.53;98510.10;105146;1262;176869;-77
2024/04/16 04:30:22;;;;;;;8.30;3.30;;;;;;;9.68;95.27;98521.98;105173;1263;60023;-77
2024/04/16 04:32:50;;;;;;;5.50;3.40;;;;;;;9.76;95.20;98527.95;105193;1263;71760;-74
2024/04/16 04:35:18;;;;;;;7.50;4.10;;;;;;;9.84;95.55;98530.91;105930;1263;69246;-76
2024/04/16 04:37:45;;;;;;;6.40;3.70;;;;;;;9.87;94.75;98534.77;107495;1263;71810;-75
2024/04/16 04:40:12;;;;;;;8.90;4.40;;;;;;;9.91;94.41;98541.00;106734;1268;60409;-73
2024/04/16 04:42:39;;;;;;;6.80;3.50;;;;;;;9.95;93.68;98548.78;105478;1264;60598;-75
2024/04/16 04:45:07;;;;;;;8.20;4.80;;;;;;;9.93;93.54;98544.98;105445;1267;73879;-76
2024/04/16 04:47:35;;;;;;;8.20;4.10;;;;;;;9.96;93.68;98545.52;105389;1263;70072;-76
2024/04/16 04:50:02;;;;;;;7.20;4.90;;;;;;;9.96;93.59;98546.35;105339;1269;71475;-77
2024/04/16 04:52:30;;;;;;;6.70;4.10;;;;;;;9.99;94.52;98541.55;105565;1268;60959;-76
2024/04/16 04:54:59;;;;;;;8.10;4.80;;;;;;;10.03;95.17;98531.48;105667;1266;60562;-74
2024/04/16 04:57:26;;;;;;;7.50;4.40;;;;;;;10.10;95.57;98533.09;105627;1266;76130;-76
2024/04/16 04:59:54;;;;;;;8.40;4.90;;;;;;;10.16;96.14;98530.95;105563;1266;68999;-75
2024/04/16 05:02:21;;;;;;;7.70;5.10;;;;;;;10.15;95.46;98528.91;105549;1263;76444;-77
2024/04/16 05:04:48;;;;;;;8.50;5.10;;;;;;;10.14;94.90;98527.80;105688;1259;62454;-75
2024/04/16 05:07:16;;;;;;;9.00;5.10;;;;;;;10.16;95.71;98521.73;105625;1261;60534;-76
2024/04/16 05:09:43;;;;;;;6.90;5.30;;;;;;;10.20;95.36;98511.55;106336;1255;74422;-77
2024/04/16 05:12:11;;;;;;;10.90;5.60;;;;;;;10.21;95.83;98506.20;106352;1258;70493;-77
2024/04/16 05:14:42;;;;;;;10.10;4.90;;;;;;;10.24;96.02;98503.36;106298;1259;70377;-78
2024/04/16 05:17:09;;;;;;;6.90;4.70;;;;;;;10.23;95.43;98491.60;106347;1254;61051;-77
2024/04/16 05:19:36;;;;;;;9.80;5.60;;;;;;;10.19;94.77;98491.50;106571;1259;60425;-77
2024/04/16 05:22:04;;;;;;;8.80;5.00;;;;;;;10.16;94.70;98486.13;106692;1259;74217;-79
2024/04/16 05:24:31;;;;;;;8.10;5.80;;;;;;;10.10;94.55;98473.52;106805;1253;71383;-80
2024/04/16 05:26:59;;;;;;;10.90;6.70;;;;;;;10.08;94.89;98460.15;106588;1257;73878;-79
2024/04/16 05:29:26;;;;;;;10.80;8.00;;;;;;;10.02;94.88;98459.48;106579;1254;63876;-78
2024/04/16 05:31:54;;;;;;;11.70;8.50;;;;;;;9.96;94.64;98464.10;108033;1254;61345;-78
2024/04/16 05:34:21;;;;;;;10.90;8.70;;;;;;;9.94;94.50;98464.42;108171;1253;74980;-76
2024/04/16 05:36:49;;;;;;;12.00;9.60;;;;;;;9.91;94.40;98455.54;106464;1259;70973;-79
2024/04/16 05:39:17;;;;;;;12.20;9.30;;;;;;;9.87;94.32;98446.91;106304;1254;71569;-79
2024/04/16 05:41:44;;;;;;;10.90;8.70;;;;;;;9.86;95.08;98443.11;106330;1256;62536;-78
2024/04/16 05:44:11;;;;;;;12.10;10.20;;;;;;;9.91;95.48;98443.78;106098;1254;61197;-77
2024/04/16 05:46:39;;;;;;;10.40;8.80;;;;;;;9.98;95.72;98446.38;106080;1259;74291;-79
2024/04/16 05:49:08;;;;;;;11.50;9.60;;;;;;;10.03;95.39;98446.63;106054;1259;70027;-80
2024/04/16 05:51:36;;;;;;;13.10;9.50;;;;;;;10.07;95.33;98448.77;106008;1261;72964;-80
2024/04/16 05:54:06;;;;;;;12.90;9.40;;;;;;;10.11;95.71;98451.08;105914;1254;60524;-80
2024/04/16 05:56:34;;;;;;;13.20;8.80;;;;;;;10.18;95.90;98457.73;106115;1253;60632;-79
2024/04/16 05:59:01;;;;;;;13.40;9.30;;;;;;;10.28;95.56;98463.08;106081;1254;74146;-79
2024/04/16 06:01:29;;;;;;;9.70;6.50;;;;;;;10.32;95.20;98462.06;105962;1261;68213;-80
2024/04/16 06:03:56;;;;;;;14.60;8.30;;;;;;;10.36;95.15;98456.94;105785;1258;75013;-81
2024/04/16 06:06:24;;;;;;;8.70;6.30;;;;;;;10.36;94.94;98455.14;105921;1258;60673;-79
2024/04/16 06:08:51;;;;;;;11.40;7.20;;;;;;;10.37;94.53;98454.69;105852;1257;60949;-77
2024/04/16 06:11:19;;;;;;;8.70;7.70;;;;;;;10.39;94.33;98456.31;105875;1253;75917;-77
2024/04/16 06:13:46;;;;;;;12.60;8.10;;;;;;;10.40;94.71;98451.12;105888;1254;71001;-79
2024/04/16 06:16:14;;;;;;;11.00;8.30;;;;;;;10.40;94.39;98448.42;105668;1259;75012;-76
2024/04/16 06:18:42;;;;;;;12.90;8.20;;;;;;;10.40;93.55;98445.15;105644;1260;62657;-78
2024/04/16 06:21:10;;;;;;;9.30;7.60;;;;;;;10.38;93.56;98446.89;105834;1260;62212;-77
2024/04/16 06:23:37;;;;;;;11.80;9.10;;;;;;;10.40;94.02;98442.37;106065;1254;74077;-77
2024/04/16 06:26:07;;;;;;;13.00;10.40;;;;;;;10.46;94.33;98447.66;107990;1254;72868;-77
2024/04/16 06:28:35;;;;;;;13.00;11.00;;;;;;;10.47;94.01;98446.77;108520;1258;73549;-75
2024/04/16 06:31:03;;;;;;;13.70;12.00;;;;;;;10.46;94.29;98442.55;106868;1258;60507;-77
2024/04/16 06:33:33;;;;;;;14.90;13.40;;;;;;;10.49;94.75;98442.89;106174;1259;60430;-78
2024/04/16 06:36:00;;;;;;;18.30;15.90;;;;;;;10.51;94.95;98438.77;106089;1259;74972;-79
2024/04/16 06:38:27;;;;;;;19.70;14.80;;;;;;;10.52;95.04;98437.14;105893;1254;71951;-77
2024/04/16 06:40:55;;;;;;;17.60;14.70;;;;;;;10.54;95.26;98421.33;105815;1259;74077;-79
2024/04/16 06:43:22;;;;;;;18.10;12.90;;;;;;;10.56;94.76;98413.91;105697;1260;62588;-76
2024/04/16 06:45:50;;;;;;;14.40;12.40;;;;;;;10.61;95.08;98405.58;106014;1259;60885;-77
2024/04/16 06:48:17;;;;;;;15.10;11.60;;;;;;;10.69;94.80;98407.73;105970;1259;75821;-79
2024/04/16 06:50:45;;;;;;;13.50;9.90;;;;;;;10.78;94.60;98403.70;105866;1259;70260;-80
2024/04/16 06:53:14;;;;;;;12.80;9.90;;;;;;;10.83;94.19;98402.64;105728;1260;72977;-80
2024/04/16 06:55:42;;;;;;;10.60;9.50;;;;;;;10.94;94.50;98405.69;106360;1260;63104;-79
2024/04/16 06:58:10;;;;;;;11.00;9.20;;;;;;;11.02;93.56;98416.45;106861;1260;60543;-77
2024/04/16 07:00:38;;;;;;;10.70;9.00;;;;;;;11.05;93.63;98412.48;106221;1254;72240;-79
2024/04/16 07:03:05;;;;;;;10.90;8.60;;;;;;;11.09;93.68;98415.59;107059;1260;68363;-81
2024/04/16 07:05:33;;;;;;;14.20;9.80;;;;;;;11.10;92.96;98415.75;106303;1256;71457;-78
2024/04/16 07:08:00;;;;;;;10.40;7.90;;;;;;;11.14;93.43;98430.93;106055;1255;61680;-78
2024/04/16 07:10:27;;;;;;;9.30;8.20;;;;;;;11.20;93.48;98430.55;106479;1259;60533;-78
2024/04/16 07:12:55;;;;;;;12.10;8.10;;;;;;;11.23;92.11;98425.61;106141;1260;74735;-77
2024/04/16 07:15:23;;;;;;;8.60;7.60;;;;;;;11.24;91.39;98432.07;106547;1256;73137;-79
2024/04/16 07:17:50;;;;;;;8.70;7.60;;;;;;;11.29;91.69;98437.38;106591;1261;74159;-79
2024/04/16 07:20:17;;;;;;;12.90;8.40;;;;;;;11.35;91.93;98439.75;106451;1259;60335;-79
2024/04/16 07:22:45;;;;;;;11.10;7.90;;;;;;;11.40;91.39;98440.66;107685;1257;61849;-78
2024/04/16 07:25:13;;;;;;;10.60;7.80;;;;;;;11.45;90.53;98438.40;108808;1258;75891;-82
2024/04/16 07:27:41;;;;;;;10.10;8.20;;;;;;;11.50;89.96;98441.52;106949;1261;70389;-82
2024/04/16 07:30:08;;;;;;;9.00;7.60;;;;;;;11.46;89.42;98450.84;106424;1260;75006;-82
2024/04/16 07:32:36;;;;;;;10.50;8.10;;;;;;;11.39;89.65;98452.89;106145;1258;60565;-81
2024/04/16 07:35:05;;;;;;;9.80;8.30;;;;;;;11.34;90.27;98444.88;106149;1257;62434;-80
2024/04/16 07:37:32;;;;;;;11.10;7.60;;;;;;;11.36;90.59;98446.52;106142;1258;73023;-82
2024/04/16 07:39:59;;;;;;;10.90;8.60;;;;;;;11.43;91.11;98439.76;106934;1254;68998;-80
2024/04/16 07:42:27;;;;;;;11.60;8.30;;;;;;;11.52;91.85;98433.41;108000;1257;72017;-79
2024/04/16 07:44:54;;;;;;;9.20;8.20;;;;;;;11.68;91.85;98438.67;108367;1256;62763;-77
2024/04/16 07:47:22;;;;;;;9.20;7.40;;;;;;;11.81;90.35;98433.79;106974;1258;60994;-81
2024/04/16 07:49:49;;;;;;;11.30;7.70;;;;;;;11.89;90.33;98431.39;105926;1257;75722;-81
2024/04/16 07:52:17;;;;;;;9.80;8.00;;;;;;;11.89;89.75;98436.36;106162;1258;68146;-84
2024/04/16 07:54:45;;;;;;;10.00;8.20;;;;;;;11.94;90.07;98434.30;107014;1254;74751;-81
2024/04/16 07:57:14;;;;;;;8.40;7.50;;;;;;;11.99;89.87;98431.80;106351;1257;64999;-83
2024/04/16 07:59:41;;;;;;;14.30;8.50;;;;;;;12.03;89.99;98426.42;106075;1263;61463;-80
2024/04/16 08:02:08;;;;;;;10.10;8.60;;;;;;;12.08;90.72;98424.80;106294;1258;76313;-81
2024/04/16 08:04:36;;;;;;;10.90;8.70;;;;;;;12.16;90.72;98424.48;106250;1258;70861;-82
2024/04/16 08:07:05;;;;;;;8.50;7.50;;;;;;;12.24;90.00;98427.63;106220;1256;73599;-82
2024/04/16 08:09:32;;;;;;;12.00;8.10;;;;;;;12.27;89.34;98428.23;106065;1257;61043;-81
2024/04/16 08:12:00;;;;;;;11.40;8.90;;;;;;;12.25;89.40;98429.75;106822;1254;61171;-82
2024/04/16 08:14:28;;;;;;;13.40;8.00;;;;;;;12.26;89.49;98422.85;106534;1253;74740;-82
2024/04/16 08:16:55;;;;;;;9.50;7.70;;;;;;;12.31;88.89;98428.41;107274;1260;69179;-79
2024/04/16 08:19:23;;;;;;;10.50;8.00;;;;;;;12.39;89.10;98417.72;108744;1253;74134;-81
2024/04/16 08:21:50;;;;;;;10.90;8.40;;;;;;;12.47;88.81;98409.28;107095;1254;61260;-81
2024/04/16 08:24:22;;;;;;;10.20;8.30;;;;;;;12.58;89.74;98408.98;106419;1260;61164;-82
2024/04/16 08:26:50;;;;;;;10.20;8.00;;;;;;;12.80;89.67;98407.09;106331;1260;76634;-77
2024/04/16 08:29:18;;;;;;;12.10;8.00;;;;;;;12.98;87.92;98408.98;106199;1254;69186;-80
2024/04/16 08:31:45;;;;;;;11.20;7.70;;;;;;;13.06;88.18;98395.70;106106;1254;71257;-77
2024/04/16 08:34:13;;;;;;;8.90;7.30;;;;;;;13.22;89.06;98390.29;106027;1257;63699;-77
2024/04/16 08:36:41;;;;;;;10.60;7.30;;;;;;;13.42;87.54;98395.48;105817;1254;61297;-78
2024/04/16 08:39:08;;;;;;;9.00;6.80;;;;;;;13.55;87.09;98400.24;105955;1254;72804;-76
2024/04/16 08:41:36;;;;;;;10.20;6.50;;;;;;;13.69;86.00;98404.46;105784;1259;70296;-77
2024/04/16 08:44:04;;;;;;;9.10;7.20;;;;;;;13.78;85.63;98395.54;105705;1259;72572;-76
2024/04/16 08:46:36;;;;;;;11.50;7.00;;;;;;;13.94;85.70;98401.31;105796;1260;61157;-78
2024/04/16 08:49:04;;;;;;;7.90;5.80;;;;;;;14.02;84.70;98404.88;105747;1260;62757;-76
2024/04/16 08:51:31;;;;;;;9.10;6.30;;;;;;;14.07;83.09;98404.62;105810;1260;77174;-76
2024/04/16 08:53:58;;;;;;;6.50;5.50;;;;;;;14.05;83.63;98393.39;106034;1255;69273;-76
2024/04/16 08:56:26;;;;;;;7.70;5.50;;;;;;;14.07;83.26;98391.52;106219;1256;75133;-77
2024/04/16 08:58:53;;;;;;;10.10;5.80;;;;;;;14.11;82.67;98387.89;106082;1256;62732;-76
2024/04/16 09:01:21;;;;;;;11.10;5.90;;;;;;;14.13;83.60;98389.56;105951;1254;61221;-75
2024/04/16 09:03:50;;;;;;;8.50;6.00;;;;;;;14.25;83.79;98395.19;105847;1260;74640;-80
2024/04/16 09:06:18;;;;;;;10.70;6.10;;;;;;;14.40;82.91;98396.16;105902;1254;73198;-78
2024/04/16 09:08:45;;;;;;;7.80;6.20;;;;;;;14.42;81.61;98392.15;106310;1259;75677;-79
2024/04/16 09:11:24;;;;;;;10.10;5.80;;;;;;;14.40;81.86;98393.00;106955;1253;62827;-79
2024/04/16 09:13:51;;;;;;;9.40;6.40;;;;;;;14.40;81.63;98385.02;107837;1254;61137;-78
2024/04/16 09:16:20;;;;;;;8.60;6.20;;;;;;;14.41;82.34;98377.66;107444;1260;75728;-81
2024/04/16 09:18:48;;;;;;;8.20;5.90;;;;;;;14.59;83.16;98376.94;106448;1254;72506;-81
2024/04/16 09:21:15;;;;;;;7.50;5.90;;;;;;;14.89;82.66;98372.34;106388;1253;75042;-79
2024/04/16 09:23:53;;;;;;;10.40;6.40;;;;;;;15.26;82.20;98369.23;106493;1254;61260;-83
2024/04/16 09:26:22;;;;;;;8.80;5.30;;;;;;;15.74;82.50;98367.36;106575;1252;62520;-86
2024/04/16 09:28:52;;;;;;;8.30;6.00;;;;;;;16.23;80.94;98372.17;106767;1254;75324;-80
2024/04/16 09:31:19;;;;;;;10.90;5.80;;;;;;;16.59;78.09;98373.29;106449;1254;72719;-82
2024/04/16 09:33:47;;;;;;;13.70;6.00;;;;;;;16.89;77.16;98365.71;106634;1254;70500;-81
2024/04/16 09:36:15;;;;;;;8.10;5.80;;;;;;;17.20;77.31;98360.38;106287;1258;64141;-82
2024/04/16 09:38:46;;;;;;;12.30;6.10;;;;;;;17.57;75.20;98363.02;106697;1254;61197;-85
2024/04/16 09:41:14;;;;;;;12.00;5.30;;;;;;;17.83;70.95;98366.93;107486;1253;75490;-84
2024/04/16 09:43:41;;;;;;;7.50;4.90;;;;;;;17.93;70.18;98364.00;107051;1255;69312;-82
2024/04/16 09:46:12;;;;;;;9.40;4.90;;;;;;;18.11;70.35;98351.00;106969;1256;72679;-82
2024/04/16 09:48:43;;;;;;;9.00;5.00;;;;;;;18.47;71.55;98352.52;107977;1254;61250;-82
2024/04/16 09:51:10;;;;;;;8.90;5.70;;;;;;;18.97;70.30;98348.27;107085;1260;62570;-81
2024/04/16 09:53:43;;;;;;;8.10;5.40;;;;;;;19.29;68.84;98353.36;106026;1253;75416;-79
2024/04/16 09:56:11;;;;;;;8.70;5.80;;;;;;;19.44;66.79;98352.96;106251;1260;72598;-77
2024/04/16 09:58:39;;;;;;;11.50;5.80;;;;;;;19.42;66.02;98356.67;106080;1254;73965;-80
2024/04/16 10:01:06;;;;;;;9.80;5.60;;;;;;;19.36;66.37;98356.21;106491;1254;61314;-84
2024/04/16 10:03:35;;;;;;;7.00;5.10;;;;;;;19.31;66.45;98360.42;106288;1252;61259;-81
2024/04/16 10:06:02;;;;;;;10.20;5.60;;;;;;;19.25;66.21;98357.48;107564;1254;76837;-82
2024/04/16 10:08:30;;;;;;;10.10;5.50;;;;;;;19.15;66.07;98351.00;108656;1253;69221;-81
2024/04/16 10:10:57;;;;;;;8.30;5.40;;;;;;;19.12;65.88;98351.13;108621;1254;73742;-77
2024/04/16 10:13:33;;;;;;;7.10;5.20;;;;;;;19.11;65.39;98358.17;106355;1253;61222;-75
2024/04/16 10:16:00;;;;;;;8.20;4.80;;;;;;;19.04;65.72;98357.10;107003;1254;61176;-78
2024/04/16 10:18:28;;;;;;;12.00;5.40;;;;;;;19.08;65.74;98363.27;107499;1253;75621;-81
2024/04/16 10:20:57;;;;;;;6.50;4.10;;;;;;;19.04;63.94;98357.64;107594;1253;69966;-83
2024/04/16 10:23:28;;;;;;;7.60;4.70;;;;;;;18.72;63.55;98352.27;108152;1257;70869;-77
2024/04/16 10:25:56;;;;;;;8.20;4.00;;;;;;;18.31;63.87;98350.95;106588;1254;62073;-79
2024/04/16 10:28:25;;;;;;;11.00;4.40;;;;;;;18.14;64.67;98347.56;106443;1254;61231;-83
2024/04/16 10:31:03;;;;;;;6.70;4.30;;;;;;;18.13;65.49;98342.91;106258;1253;74751;-83
2024/04/16 10:33:38;;;;;;;9.40;4.80;;;;;;;18.28;64.79;98342.21;106448;1253;69298;-83
2024/04/16 10:36:09;;;;;;;6.90;4.50;;;;;;;18.48;64.74;98339.14;106427;1254;71422;-81
2024/04/16 10:38:36;;;;;;;8.80;4.90;;;;;;;18.56;64.48;98337.65;106848;1253;61421;-83
2024/04/16 10:41:04;;;;;;;8.10;6.00;;;;;;;18.60;64.66;98336.24;106935;1253;61314;-77
2024/04/16 10:43:37;;;;;;;9.60;4.50;;;;;;;18.63;63.64;98330.41;106784;1254;74924;-81
2024/04/16 10:46:07;;;;;;;8.60;5.40;;;;;;;18.53;64.44;98329.94;106765;1253;72265;-80
2024/04/16 10:48:35;;;;;;;8.90;5.20;;;;;;;18.50;64.20;98328.95;106767;1258;74976;-78
2024/04/16 10:51:11;;;;;;;8.30;4.90;;;;;;;18.44;64.38;98323.19;106852;1253;61206;-78
2024/04/16 10:53:38;;;;;;;8.60;5.10;;;;;;;18.37;64.34;98324.67;106532;1260;62297;-80
2024/04/16 10:56:09;;;;;;;8.70;4.90;;;;;;;18.41;64.46;98321.43;106673;1253;76763;-79
2024/04/16 10:58:37;;;;;;;8.50;4.40;;;;;;;18.68;64.74;98316.64;107450;1254;69030;-79
2024/04/16 11:01:09;;;;;;;7.90;4.60;;;;;;;19.06;63.85;98315.56;107589;1253;73674;-81
2024/04/16 11:03:37;;;;;;;6.00;4.50;;;;;;;19.54;64.14;98306.92;108369;1253;59522;-82
2024/04/16 11:06:06;;;;;;;10.50;6.00;;;;;;;20.15;62.06;98302.44;108440;1253;61384;-80
2024/04/16 11:08:36;;;;;;;7.80;4.70;;;;;;;20.61;60.06;98288.45;107422;1253;73900;-79
2024/04/16 11:11:04;;;;;;;8.20;5.00;;;;;;;21.07;59.93;98277.87;106891;1258;71122;-82
2024/04/16 11:13:32;;;;;;;7.10;4.90;;;;;;;21.57;58.35;98284.10;107085;1258;70376;-83
2024/04/16 11:16:03;;;;;;;9.20;5.50;;;;;;;21.83;56.24;98285.89;107832;1257;61106;-83
2024/04/16 11:18:31;;;;;;;8.50;6.10;;;;;;;21.76;56.14;98293.04;108802;1253;59265;-82
2024/04/16 11:20:59;;;;;;;6.20;4.70;;;;;;;21.47;56.30;98283.15;107679;1258;76014;-79
2024/04/16 11:23:27;;;;;;;9.70;5.10;;;;;;;21.16;57.26;98270.89;107515;1253;69307;-80
2024/04/16 11:25:56;;;;;;;14.40;5.80;;;;;;;21.00;58.28;98267.62;106762;1253;74950;-78
2024/04/16 11:28:26;;;;;;;9.90;6.00;;;;;;;20.93;58.58;98269.20;106449;1258;61318;-82
2024/04/16 11:30:56;;;;;;;10.50;6.00;;;;;;;20.79;58.63;98264.08;106591;1256;61303;-80
2024/04/16 11:33:24;;;;;;;8.40;6.10;;;;;;;20.44;58.81;98268.80;106623;1253;74951;-81